Time;durP1;ratioP1;P1;durP2;ratioP2;P2;SDS_P1;SDS_P2;PMS_P1;PMS_P2;Temp;Humidity;BMP_temperature;BMP_pressure;BME280_temperature;BME280_humidity;BME280_pressure;Samples;Min_cycle;Max_cycle;Signal;HPM_P1;HPM_P2
2022/09/11 00:00:45;;;;;;;;;;;16.00;90.80;;;;;;5036825;28;19913;-82
2022/09/11 00:03:11;;;;;;;;;;;16.00;91.00;;;;;;5038511;28;19916;-81
2022/09/11 00:05:38;;;;;;;;;;;16.00;91.00;;;;;;5036900;28;19917;-81
2022/09/11 00:08:04;;;;;;;;;;;16.00;90.90;;;;;;5054895;28;19918;-79
2022/09/11 00:10:30;;;;;;;;;;;16.00;91.00;;;;;;5044347;28;19913;-82
2022/09/11 00:12:57;;;;;;;;;;;15.90;91.10;;;;;;5036823;28;19921;-82
2022/09/11 00:15:22;;;;;;;;;;;15.90;91.00;;;;;;5038745;28;19932;-81
2022/09/11 00:17:48;;;;;;;;;;;15.80;91.00;;;;;;5048082;28;19909;-81
2022/09/11 00:20:13;;;;;;;;;;;15.80;90.90;;;;;;5042068;28;19917;-81
2022/09/11 00:22:39;;;;;;;;;;;15.80;91.20;;;;;;5039334;28;19910;-81
2022/09/11 00:25:04;;;;;;;;;;;15.70;91.10;;;;;;5040084;28;20008;-81
2022/09/11 00:27:30;;;;;;;;;;;15.70;91.00;;;;;;5036622;28;19916;-81
2022/09/11 00:29:55;;;;;;;;;;;15.70;91.00;;;;;;5037890;28;19920;-81
2022/09/11 00:32:20;;;;;;;;;;;15.60;90.80;;;;;;5037831;28;19952;-81
2022/09/11 00:34:46;;;;;;;;;;;15.60;90.60;;;;;;5036713;28;19916;-81
2022/09/11 00:37:12;;;;;;;;;;;15.60;90.70;;;;;;5035612;28;19909;-81
2022/09/11 00:39:37;;;;;;;;;;;15.50;90.70;;;;;;5034641;28;19913;-80
2022/09/11 00:42:04;;;;;;;;;;;15.50;90.90;;;;;;5035242;28;20311;-81
2022/09/11 00:44:29;;;;;;;;;;;15.50;90.80;;;;;;5036262;28;19913;-81
2022/09/11 00:46:57;;;;;;;;;;;15.50;90.60;;;;;;5036939;28;19917;-81
2022/09/11 00:49:27;;;;;;;;;;;15.40;90.40;;;;;;5036163;28;19913;-81
2022/09/11 00:51:59;;;;;;;;;;;15.40;90.30;;;;;;5036712;28;20379;-81
2022/09/11 00:54:30;;;;;;;;;;;15.30;90.40;;;;;;5052425;28;19909;-81
2022/09/11 00:56:57;;;;;;;;;;;15.30;90.10;;;;;;5035566;28;19913;-81
2022/09/11 00:59:26;;;;;;;;;;;15.30;90.20;;;;;;5050531;28;19920;-81
2022/09/11 01:01:52;;;;;;;;;;;15.30;90.20;;;;;;5045676;28;20444;-81
2022/09/11 01:04:19;;;;;;;;;;;15.30;90.30;;;;;;5036140;28;19956;-81
2022/09/11 01:06:45;;;;;;;;;;;15.30;90.10;;;;;;5035961;28;19913;-81
2022/09/11 01:09:11;;;;;;;;;;;15.30;90.10;;;;;;5036102;28;19917;-81
2022/09/11 01:11:46;;;;;;;;;;;15.30;90.00;;;;;;5051073;28;19971;-81
2022/09/11 01:14:28;;;;;;;;;;;15.20;90.40;;;;;;5035315;28;19917;-81
2022/09/11 01:16:58;;;;;;;;;;;15.20;90.50;;;;;;5050812;28;19909;-81
2022/09/11 01:19:59;;;;;;;;;;;15.20;90.40;;;;;;5033340;28;20346;-81
2022/09/11 01:22:43;;;;;;;;;;;15.30;90.50;;;;;;4919276;29;19926;-81
2022/09/11 01:25:09;;;;;;;;;;;15.30;90.60;;;;;;5027086;28;19913;-81
2022/09/11 01:27:43;;;;;;;;;;;15.20;90.70;;;;;;5049107;28;19921;-81
2022/09/11 01:30:14;;;;;;;;;;;15.30;90.80;;;;;;5034850;28;19945;-81
2022/09/11 01:32:42;;;;;;;;;;;15.30;90.90;;;;;;5050345;28;19931;-80
2022/09/11 01:35:12;;;;;;;;;;;15.40;90.80;;;;;;5032751;28;19913;-81
2022/09/11 01:37:52;;;;;;;;;;;15.50;90.60;;;;;;5029930;28;19920;-80
2022/09/11 01:40:25;;;;;;;;;;;15.50;90.50;;;;;;5048841;28;19924;-81
2022/09/11 01:42:51;;;;;;;;;;;15.40;90.60;;;;;;5034484;28;20389;-81
2022/09/11 01:45:17;;;;;;;;;;;15.50;90.60;;;;;;5034212;28;19917;-81
2022/09/11 01:47:44;;;;;;;;;;;15.50;90.40;;;;;;5046274;28;20394;-81
2022/09/11 01:50:12;;;;;;;;;;;15.60;90.60;;;;;;5049905;28;19913;-80
2022/09/11 01:52:58;;;;;;;;;;;15.60;90.90;;;;;;5064683;28;20395;-81
2022/09/11 01:55:27;;;;;;;;;;;15.70;90.80;;;;;;5041273;28;19909;-81
2022/09/11 01:57:59;;;;;;;;;;;15.70;90.60;;;;;;5038805;28;19913;-81
2022/09/11 02:00:24;;;;;;;;;;;15.60;90.80;;;;;;5039221;28;19921;-81
2022/09/11 02:03:10;;;;;;;;;;;15.80;90.80;;;;;;5039265;28;19910;-81
2022/09/11 02:05:45;;;;;;;;;;;15.80;90.80;;;;;;5036070;28;19925;-81
2022/09/11 02:08:15;;;;;;;;;;;15.80;90.90;;;;;;5034749;28;19917;-81
2022/09/11 02:11:03;;;;;;;;;;;15.90;91.00;;;;;;5036734;28;19913;-81
2022/09/11 02:13:47;;;;;;;;;;;16.00;90.30;;;;;;5037086;28;19963;-81
2022/09/11 02:16:15;;;;;;;;;;;16.00;90.30;;;;;;5036384;28;19960;-81
2022/09/11 02:18:50;;;;;;;;;;;15.90;90.30;;;;;;5044878;28;19909;-80
2022/09/11 02:21:15;;;;;;;;;;;16.00;89.70;;;;;;5031690;28;19917;-81
2022/09/11 02:23:41;;;;;;;;;;;16.10;89.90;;;;;;5037342;28;19916;-81
2022/09/11 02:26:08;;;;;;;;;;;16.00;90.00;;;;;;5037131;28;19920;-81
2022/09/11 02:28:33;;;;;;;;;;;16.00;90.20;;;;;;5034227;28;20307;-81
2022/09/11 02:31:01;;;;;;;;;;;16.00;90.40;;;;;;5036799;28;19917;-81
2022/09/11 02:33:34;;;;;;;;;;;15.90;90.50;;;;;;5043091;28;19913;-81
2022/09/11 02:36:09;;;;;;;;;;;15.80;90.70;;;;;;5051797;28;19945;-81
2022/09/11 02:38:43;;;;;;;;;;;15.80;90.70;;;;;;5040513;28;19921;-80
2022/09/11 02:41:13;;;;;;;;;;;15.80;90.90;;;;;;5040428;28;19941;-81
2022/09/11 02:43:57;;;;;;;;;;;15.80;90.80;;;;;;5055225;28;19913;-81
2022/09/11 02:46:23;;;;;;;;;;;15.60;90.70;;;;;;5057934;28;19910;-80
2022/09/11 02:49:03;;;;;;;;;;;15.60;91.00;;;;;;5046672;28;20283;-81
2022/09/11 02:51:47;;;;;;;;;;;15.70;90.90;;;;;;5039814;28;19913;-81
2022/09/11 02:54:20;;;;;;;;;;;15.80;90.60;;;;;;5054940;28;20015;-81
2022/09/11 02:57:01;;;;;;;;;;;15.80;90.60;;;;;;5043897;28;20284;-81
2022/09/11 02:59:32;;;;;;;;;;;15.90;90.50;;;;;;5038924;28;19921;-81
2022/09/11 03:02:00;;;;;;;;;;;15.90;90.50;;;;;;5038879;28;19917;-82
2022/09/11 03:04:26;;;;;;;;;;;15.90;90.60;;;;;;5037994;28;19913;-81
2022/09/11 03:06:52;;;;;;;;;;;15.90;90.60;;;;;;5054238;28;19924;-81
2022/09/11 03:09:19;;;;;;;;;;;15.90;90.50;;;;;;5037339;28;19924;-81
2022/09/11 03:11:44;;;;;;;;;;;15.90;90.80;;;;;;5042450;28;19917;-82
2022/09/11 03:14:10;;;;;;;;;;;15.90;90.60;;;;;;5055097;28;19909;-81
2022/09/11 03:16:35;;;;;;;;;;;15.80;90.40;;;;;;5040353;28;19909;-81
2022/09/11 03:19:02;;;;;;;;;;;15.70;90.50;;;;;;5039049;28;19909;-81
2022/09/11 03:21:28;;;;;;;;;;;15.70;90.80;;;;;;5053377;28;19913;-81
2022/09/11 03:23:53;;;;;;;;;;;15.70;90.60;;;;;;5039007;28;19916;-81
2022/09/11 03:26:18;;;;;;;;;;;15.60;90.80;;;;;;5038327;28;19924;-81
2022/09/11 03:28:45;;;;;;;;;;;15.60;90.90;;;;;;5038928;28;19909;-81
2022/09/11 03:31:12;;;;;;;;;;;15.50;91.20;;;;;;5039055;28;19909;-81
2022/09/11 03:33:37;;;;;;;;;;;15.60;91.10;;;;;;5045286;28;19920;-80
2022/09/11 03:36:03;;;;;;;;;;;15.60;91.10;;;;;;5041734;28;19909;-81
2022/09/11 03:38:28;;;;;;;;;;;15.60;90.90;;;;;;5037873;28;19909;-81
2022/09/11 03:40:53;;;;;;;;;;;15.60;90.60;;;;;;5037569;28;19959;-81
2022/09/11 03:43:19;;;;;;;;;;;15.60;90.70;;;;;;5037253;28;19936;-81
2022/09/11 03:45:48;;;;;;;;;;;15.60;90.70;;;;;;5036265;28;19923;-82
2022/09/11 03:48:14;;;;;;;;;;;15.60;90.80;;;;;;5052706;28;19959;-81
2022/09/11 03:50:40;;;;;;;;;;;15.60;90.60;;;;;;5035115;28;19913;-81
2022/09/11 03:53:05;;;;;;;;;;;15.60;90.70;;;;;;5036491;28;19917;-81
2022/09/11 03:55:30;;;;;;;;;;;15.60;90.80;;;;;;5036151;28;19919;-80
2022/09/11 03:57:57;;;;;;;;;;;15.50;90.80;;;;;;5052131;28;20303;-81
2022/09/11 04:00:23;;;;;;;;;;;15.50;90.90;;;;;;5036323;28;20062;-81
2022/09/11 04:02:49;;;;;;;;;;;15.40;90.90;;;;;;5036831;28;20319;-81
2022/09/11 04:05:15;;;;;;;;;;;15.50;91.00;;;;;;5035237;28;19996;-81
2022/09/11 04:07:40;;;;;;;;;;;15.60;90.80;;;;;;5051383;28;19964;-82
2022/09/11 04:10:06;;;;;;;;;;;15.60;90.70;;;;;;5050381;28;19913;-79
2022/09/11 04:12:32;;;;;;;;;;;15.70;90.80;;;;;;5051339;28;19909;-80
2022/09/11 04:14:58;;;;;;;;;;;15.70;90.80;;;;;;5036033;28;19909;-80
2022/09/11 04:17:23;;;;;;;;;;;15.80;90.90;;;;;;5034670;28;19913;-79
2022/09/11 04:19:48;;;;;;;;;;;15.90;90.50;;;;;;5034384;28;20410;-80
2022/09/11 04:22:14;;;;;;;;;;;15.90;90.40;;;;;;5034751;28;19909;-80
2022/09/11 04:24:39;;;;;;;;;;;15.90;90.40;;;;;;5049346;28;19913;-79
2022/09/11 04:27:05;;;;;;;;;;;15.90;90.40;;;;;;5031798;28;19924;-79
2022/09/11 04:29:31;;;;;;;;;;;15.90;90.40;;;;;;5045184;28;19996;-79
2022/09/11 04:31:57;;;;;;;;;;;15.90;90.50;;;;;;5032498;28;19913;-79
2022/09/11 04:34:22;;;;;;;;;;;15.90;90.50;;;;;;5031461;28;19913;-79
2022/09/11 04:36:48;;;;;;;;;;;15.90;90.60;;;;;;5033825;28;19909;-79
2022/09/11 04:39:14;;;;;;;;;;;15.90;90.50;;;;;;5047514;28;19921;-79
2022/09/11 04:41:39;;;;;;;;;;;15.90;90.40;;;;;;5041492;28;19919;-80
2022/09/11 04:44:05;;;;;;;;;;;15.80;90.80;;;;;;5032298;28;19913;-80
2022/09/11 04:46:31;;;;;;;;;;;15.80;90.80;;;;;;5032893;28;19914;-79
2022/09/11 04:49:01;;;;;;;;;;;15.80;91.00;;;;;;5048743;28;20376;-80
2022/09/11 04:51:28;;;;;;;;;;;15.80;91.10;;;;;;5055406;28;19953;-79
2022/09/11 04:53:56;;;;;;;;;;;15.90;90.80;;;;;;5050986;28;19913;-79
2022/09/11 04:56:22;;;;;;;;;;;15.90;90.70;;;;;;5046961;28;19909;-79
2022/09/11 04:58:53;;;;;;;;;;;15.90;90.70;;;;;;5062605;28;19940;-80
2022/09/11 05:01:18;;;;;;;;;;;15.90;90.80;;;;;;5040203;28;19920;-80
2022/09/11 05:03:44;;;;;;;;;;;15.90;90.80;;;;;;5038886;28;19913;-80
2022/09/11 05:06:11;;;;;;;;;;;16.00;90.90;;;;;;5039656;28;19917;-81
2022/09/11 05:08:36;;;;;;;;;;;16.00;90.70;;;;;;5057936;22;19932;-80
2022/09/11 05:11:04;;;;;;;;;;;16.00;90.70;;;;;;5063122;28;19909;-80
2022/09/11 05:13:30;;;;;;;;;;;16.00;90.70;;;;;;5050922;28;19916;-80
2022/09/11 05:15:59;;;;;;;;;;;16.00;90.60;;;;;;5052820;28;19909;-79
2022/09/11 05:18:25;;;;;;;;;;;16.00;90.80;;;;;;5052254;28;19936;-80
2022/09/11 05:20:57;;;;;;;;;;;16.10;90.60;;;;;;5052141;28;19931;-80
2022/09/11 05:23:23;;;;;;;;;;;16.10;90.50;;;;;;5050839;28;19920;-80
2022/09/11 05:25:48;;;;;;;;;;;16.10;90.30;;;;;;5051481;28;19917;-80
2022/09/11 05:28:14;;;;;;;;;;;16.10;90.40;;;;;;5046679;28;20368;-80
2022/09/11 05:30:40;;;;;;;;;;;16.10;90.50;;;;;;5039527;28;19921;-79
2022/09/11 05:33:06;;;;;;;;;;;16.20;90.10;;;;;;5044358;28;19913;-79
2022/09/11 05:35:31;;;;;;;;;;;16.20;90.10;;;;;;5045079;28;20323;-80
2022/09/11 05:37:57;;;;;;;;;;;16.20;90.10;;;;;;5051192;28;19982;-80
2022/09/11 05:40:22;;;;;;;;;;;16.10;90.40;;;;;;5052754;28;20047;-80
2022/09/11 05:42:48;;;;;;;;;;;16.10;90.40;;;;;;5052336;28;19912;-80
2022/09/11 05:45:13;;;;;;;;;;;16.20;90.30;;;;;;5054543;28;20387;-80
2022/09/11 05:47:39;;;;;;;;;;;16.20;90.30;;;;;;5052849;28;20269;-80
2022/09/11 05:50:04;;;;;;;;;;;16.10;90.40;;;;;;5052737;28;19932;-80
2022/09/11 05:52:30;;;;;;;;;;;16.10;90.40;;;;;;5053272;28;19909;-80
2022/09/11 05:54:57;;;;;;;;;;;16.30;90.60;;;;;;5053081;28;20417;-80
2022/09/11 05:57:22;;;;;;;;;;;16.30;89.90;;;;;;5052758;28;19951;-80
2022/09/11 05:59:48;;;;;;;;;;;16.20;89.80;;;;;;5050818;28;19956;-80
2022/09/11 06:02:13;;;;;;;;;;;16.20;90.10;;;;;;5051203;28;19921;-80
2022/09/11 06:04:39;;;;;;;;;;;16.30;89.60;;;;;;5054048;28;19909;-80
2022/09/11 06:07:04;;;;;;;;;;;16.30;89.70;;;;;;5051859;28;19986;-80
2022/09/11 06:09:30;;;;;;;;;;;16.40;89.70;;;;;;5049295;28;20368;-80
2022/09/11 06:11:55;;;;;;;;;;;16.40;89.50;;;;;;5050661;28;19913;-79
2022/09/11 06:14:21;;;;;;;;;;;16.40;89.40;;;;;;5052368;28;19913;-79
2022/09/11 06:16:47;;;;;;;;;;;16.20;89.70;;;;;;5053420;28;20432;-80
2022/09/11 06:19:12;;;;;;;;;;;16.40;89.60;;;;;;5051354;28;19912;-80
2022/09/11 06:21:38;;;;;;;;;;;16.40;89.20;;;;;;5052577;28;20401;-79
2022/09/11 06:24:04;;;;;;;;;;;16.40;89.50;;;;;;5048434;28;20299;-80
2022/09/11 06:26:29;;;;;;;;;;;16.40;89.70;;;;;;5052471;28;19912;-80
2022/09/11 06:28:55;;;;;;;;;;;16.40;89.90;;;;;;5050057;28;19995;-80
2022/09/11 06:31:23;;;;;;;;;;;16.50;89.00;;;;;;5052119;28;19909;-80
2022/09/11 06:33:49;;;;;;;;;;;16.60;88.90;;;;;;5050569;28;19940;-80
2022/09/11 06:36:16;;;;;;;;;;;16.60;88.70;;;;;;5065334;28;19909;-79
2022/09/11 06:38:43;;;;;;;;;;;16.50;89.20;;;;;;5056528;28;19913;-80
2022/09/11 06:41:11;;;;;;;;;;;16.50;89.40;;;;;;5054878;28;20372;-79
2022/09/11 06:43:37;;;;;;;;;;;16.50;89.40;;;;;;5054850;28;19951;-79
2022/09/11 06:46:08;;;;;;;;;;;16.50;89.70;;;;;;5053864;28;19998;-79
2022/09/11 06:48:33;;;;;;;;;;;16.50;89.70;;;;;;5054060;28;19909;-80
2022/09/11 06:51:10;;;;;;;;;;;16.60;89.10;;;;;;5052680;28;20287;-79
2022/09/11 06:53:35;;;;;;;;;;;16.60;89.40;;;;;;5056503;28;19916;-80
2022/09/11 06:56:01;;;;;;;;;;;16.60;89.40;;;;;;5052702;28;20291;-79
2022/09/11 06:58:28;;;;;;;;;;;16.60;89.40;;;;;;5053437;28;20368;-78
2022/09/11 07:01:06;;;;;;;;;;;16.60;89.50;;;;;;5048476;28;19913;-80
2022/09/11 07:03:32;;;;;;;;;;;16.60;89.40;;;;;;5063350;28;19948;-78
2022/09/11 07:05:58;;;;;;;;;;;16.60;89.40;;;;;;5058143;28;19924;-78
2022/09/11 07:08:23;;;;;;;;;;;16.60;89.60;;;;;;5052222;28;20372;-78
2022/09/11 07:10:49;;;;;;;;;;;16.60;89.50;;;;;;5052263;28;19913;-79
2022/09/11 07:13:14;;;;;;;;;;;16.60;89.50;;;;;;5054543;28;20368;-80
2022/09/11 07:15:41;;;;;;;;;;;16.60;89.50;;;;;;5050486;28;19920;-79
2022/09/11 07:18:06;;;;;;;;;;;16.60;89.20;;;;;;5055354;28;19909;-82
2022/09/11 07:20:32;;;;;;;;;;;16.80;88.90;;;;;;5044283;28;19923;-79
2022/09/11 07:22:58;;;;;;;;;;;16.80;89.10;;;;;;5046681;28;19958;-80
2022/09/11 07:25:23;;;;;;;;;;;17.00;88.80;;;;;;5051641;28;19913;-80
2022/09/11 07:27:50;;;;;;;;;;;17.00;88.50;;;;;;5053096;28;19920;-79
2022/09/11 07:30:16;;;;;;;;;;;17.00;88.60;;;;;;5053200;28;19912;-80
2022/09/11 07:32:42;;;;;;;;;;;17.00;88.20;;;;;;5051973;28;19935;-80
2022/09/11 07:35:07;;;;;;;;;;;17.10;88.00;;;;;;5045848;28;20117;-80
2022/09/11 07:37:32;;;;;;;;;;;17.00;88.60;;;;;;5053886;28;20367;-79
2022/09/11 07:39:58;;;;;;;;;;;17.10;88.50;;;;;;5048489;28;20295;-80
2022/09/11 07:42:24;;;;;;;;;;;17.10;88.40;;;;;;5055838;28;19995;-80
2022/09/11 07:44:49;;;;;;;;;;;17.10;88.10;;;;;;5052782;28;19917;-79
2022/09/11 07:47:15;;;;;;;;;;;17.30;87.50;;;;;;5055386;28;19912;-79
2022/09/11 07:49:41;;;;;;;;;;;17.40;86.70;;;;;;5046563;28;19999;-80
2022/09/11 07:52:06;;;;;;;;;;;17.50;86.30;;;;;;5056511;28;19909;-79
2022/09/11 07:54:32;;;;;;;;;;;17.50;86.80;;;;;;5039749;28;19909;-80
2022/09/11 07:56:57;;;;;;;;;;;17.40;87.20;;;;;;5056211;28;19909;-78
2022/09/11 07:59:23;;;;;;;;;;;17.50;86.20;;;;;;5055780;28;20003;-79
2022/09/11 08:01:49;;;;;;;;;;;17.30;86.70;;;;;;5050806;28;19917;-79
2022/09/11 08:04:14;;;;;;;;;;;17.30;86.80;;;;;;5055744;28;19913;-76
2022/09/11 08:06:40;;;;;;;;;;;17.20;87.30;;;;;;5054880;28;19927;-79
2022/09/11 08:09:07;;;;;;;;;;;17.20;87.10;;;;;;5054416;28;20303;-79
2022/09/11 08:11:35;;;;;;;;;;;17.40;86.50;;;;;;5036143;28;20003;-79
2022/09/11 08:14:01;;;;;;;;;;;17.30;86.70;;;;;;5040580;28;19968;-80
2022/09/11 08:16:27;;;;;;;;;;;17.20;87.10;;;;;;5055711;28;19909;-80
2022/09/11 08:18:53;;;;;;;;;;;17.10;87.70;;;;;;5054342;28;19915;-78
2022/09/11 08:21:19;;;;;;;;;;;17.20;87.00;;;;;;5051358;28;20264;-79
2022/09/11 08:23:45;;;;;;;;;;;17.30;86.80;;;;;;5047535;28;19919;-78
2022/09/11 08:26:11;;;;;;;;;;;17.10;87.30;;;;;;5046361;28;19913;-79
2022/09/11 08:28:37;;;;;;;;;;;17.10;87.30;;;;;;5053347;28;19936;-78
2022/09/11 08:31:03;;;;;;;;;;;17.10;87.50;;;;;;5052745;28;19910;-78
2022/09/11 08:33:29;;;;;;;;;;;17.10;88.40;;;;;;5058266;28;20304;-79
2022/09/11 08:35:59;;;;;;;;;;;17.10;88.40;;;;;;5056914;28;19935;-79
2022/09/11 08:38:24;;;;;;;;;;;17.10;88.20;;;;;;5046868;28;19920;-79
2022/09/11 08:40:50;;;;;;;;;;;17.00;88.10;;;;;;5046054;28;19955;-79
2022/09/11 08:43:21;;;;;;;;;;;17.00;87.90;;;;;;5045733;28;19913;-79
2022/09/11 08:45:47;;;;;;;;;;;17.10;88.20;;;;;;5059879;28;19917;-78
2022/09/11 08:48:13;;;;;;;;;;;17.00;87.90;;;;;;5058238;28;19993;-79
2022/09/11 08:50:40;;;;;;;;;;;17.00;88.50;;;;;;5045590;28;19917;-79
2022/09/11 08:53:09;;;;;;;;;;;17.00;88.20;;;;;;5047194;28;19919;-80
2022/09/11 08:55:38;;;;;;;;;;;16.80;88.50;;;;;;5042860;28;20027;-79
2022/09/11 08:58:24;;;;;;;;;;;16.80;89.20;;;;;;5048500;28;19916;-78
2022/09/11 09:00:55;;;;;;;;;;;17.00;89.40;;;;;;5046926;28;19920;-79
2022/09/11 09:03:59;;;;;;;;;;;17.10;89.10;;;;;;5042723;28;19917;-79
2022/09/11 09:06:26;;;;;;;;;;;17.20;88.10;;;;;;4966910;28;21454;-77
2022/09/11 09:08:52;;;;;;;;;;;17.30;87.60;;;;;;4982194;28;20000;-79
2022/09/11 09:11:27;;;;;;;;;;;17.30;87.90;;;;;;5008957;28;19943;-77
2022/09/11 09:14:12;;;;;;;;;;;17.30;87.80;;;;;;5042614;28;20000;-79
2022/09/11 09:16:44;;;;;;;;;;;17.40;87.60;;;;;;5042420;28;20006;-77
2022/09/11 09:19:21;;;;;;;;;;;17.40;86.90;;;;;;5040879;28;19913;-79
2022/09/11 09:21:46;;;;;;;;;;;17.40;86.80;;;;;;5046067;28;19921;-78
2022/09/11 09:24:18;;;;;;;;;;;17.40;87.00;;;;;;5044322;28;20256;-79
2022/09/11 09:26:46;;;;;;;;;;;17.40;87.10;;;;;;5050886;28;19916;-80
2022/09/11 09:29:22;;;;;;;;;;;17.50;87.20;;;;;;5048272;28;20597;-80
2022/09/11 09:31:50;;;;;;;;;;;17.50;86.40;;;;;;5047067;28;20364;-79
2022/09/11 09:34:21;;;;;;;;;;;17.60;86.80;;;;;;5045307;28;19958;-79
2022/09/11 09:36:56;;;;;;;;;;;17.60;86.60;;;;;;5046901;28;19917;-80
2022/09/11 09:39:22;;;;;;;;;;;17.70;85.60;;;;;;5045705;28;19966;-80
2022/09/11 09:41:48;;;;;;;;;;;17.50;86.20;;;;;;5047920;28;19921;-79
2022/09/11 09:44:29;;;;;;;;;;;17.50;86.40;;;;;;5039248;28;19913;-79
2022/09/11 09:46:55;;;;;;;;;;;17.50;87.00;;;;;;5039545;28;19921;-79
2022/09/11 09:49:22;;;;;;;;;;;17.60;86.10;;;;;;5037606;28;19979;-79
2022/09/11 09:51:48;;;;;;;;;;;17.60;86.00;;;;;;5038386;28;20334;-78
2022/09/11 09:54:15;;;;;;;;;;;17.60;86.20;;;;;;5041463;28;19952;-78
2022/09/11 09:56:42;;;;;;;;;;;17.50;86.50;;;;;;5036205;28;19920;-79
2022/09/11 09:59:07;;;;;;;;;;;17.40;85.70;;;;;;5037929;28;19921;-77
2022/09/11 10:01:52;;;;;;;;;;;17.40;85.50;;;;;;5039444;28;19967;-79
2022/09/11 10:04:22;;;;;;;;;;;17.40;85.60;;;;;;5058437;28;19914;-78
2022/09/11 10:06:50;;;;;;;;;;;17.40;86.30;;;;;;5041766;28;19988;-77
2022/09/11 10:09:20;;;;;;;;;;;17.50;86.00;;;;;;5052067;28;19995;-79
2022/09/11 10:11:50;;;;;;;;;;;17.60;85.90;;;;;;5046128;28;19920;-79
2022/09/11 10:14:20;;;;;;;;;;;17.60;86.60;;;;;;5048883;28;19925;-79
2022/09/11 10:16:49;;;;;;;;;;;17.80;86.10;;;;;;5043650;28;19913;-79
2022/09/11 10:19:33;;;;;;;;;;;17.90;85.40;;;;;;5066206;28;19913;-79
2022/09/11 10:22:18;;;;;;;;;;;18.10;84.70;;;;;;5050330;28;19924;-79
2022/09/11 10:24:43;;;;;;;;;;;18.00;84.60;;;;;;5047743;28;19913;-80
2022/09/11 10:27:11;;;;;;;;;;;18.10;84.50;;;;;;5049993;28;20280;-79
2022/09/11 10:29:36;;;;;;;;;;;18.20;83.80;;;;;;5052723;28;20003;-79
2022/09/11 10:32:02;;;;;;;;;;;18.20;83.70;;;;;;5049874;28;19952;-80
2022/09/11 10:34:35;;;;;;;;;;;18.20;83.50;;;;;;5049429;28;19928;-79
2022/09/11 10:37:07;;;;;;;;;;;18.50;83.00;;;;;;5051395;28;19939;-79
2022/09/11 10:39:34;;;;;;;;;;;18.40;82.80;;;;;;5048857;28;19920;-79
2022/09/11 10:42:12;;;;;;;;;;;18.50;83.00;;;;;;5048462;28;19983;-79
2022/09/11 10:44:40;;;;;;;;;;;18.50;82.20;;;;;;5048293;28;19920;-80
2022/09/11 10:47:17;;;;;;;;;;;18.50;82.30;;;;;;5065170;28;19917;-76
2022/09/11 10:49:43;;;;;;;;;;;18.50;81.20;;;;;;5051460;28;19913;-79
2022/09/11 10:52:08;;;;;;;;;;;18.60;81.10;;;;;;5053193;28;19935;-79
2022/09/11 10:54:40;;;;;;;;;;;18.60;81.30;;;;;;5052841;28;19924;-79
2022/09/11 10:57:24;;;;;;;;;;;18.80;80.70;;;;;;5052277;28;19921;-79
2022/09/11 11:00:08;;;;;;;;;;;19.00;80.50;;;;;;5049343;28;20367;-79
2022/09/11 11:02:36;;;;;;;;;;;19.20;79.40;;;;;;5055521;28;19913;-78
2022/09/11 11:05:25;;;;;;;;;;;19.30;79.40;;;;;;5060741;28;19970;-78
2022/09/11 11:07:53;;;;;;;;;;;19.20;77.90;;;;;;5043874;28;19917;-78
2022/09/11 11:10:18;;;;;;;;;;;18.90;78.40;;;;;;5039468;22;20389;-79
2022/09/11 11:13:04;;;;;;;;;;;18.70;79.70;;;;;;5023689;28;19920;-81
2022/09/11 11:15:37;;;;;;;;;;;18.80;80.20;;;;;;5023229;28;19921;-81
2022/09/11 11:18:22;;;;;;;;;;;19.00;79.60;;;;;;5016139;28;19913;-81
2022/09/11 11:21:05;;;;;;;;;;;19.00;80.00;;;;;;5028299;28;19917;-80
2022/09/11 11:23:58;;;;;;;;;;;19.10;77.80;;;;;;5036105;28;19977;-82
2022/09/11 11:26:24;;;;;;;;;;;18.90;79.60;;;;;;5011052;28;20457;-80
2022/09/11 11:29:01;;;;;;;;;;;18.80;79.70;;;;;;5017647;28;19951;-79
2022/09/11 11:31:36;;;;;;;;;;;18.90;79.80;;;;;;5029521;28;19913;-80
2022/09/11 11:34:02;;;;;;;;;;;19.00;78.40;;;;;;5019523;28;19985;-79
2022/09/11 11:36:27;;;;;;;;;;;19.00;79.00;;;;;;5031488;28;19910;-80
2022/09/11 11:39:00;;;;;;;;;;;19.20;79.60;;;;;;5041713;28;19920;-81
2022/09/11 11:41:29;;;;;;;;;;;19.30;78.20;;;;;;5036951;28;19988;-81
2022/09/11 11:43:55;;;;;;;;;;;19.30;77.30;;;;;;5029457;28;20255;-81
2022/09/11 11:46:24;;;;;;;;;;;19.40;76.10;;;;;;5018811;28;19949;-82
2022/09/11 11:49:22;;;;;;;;;;;19.00;78.80;;;;;;5018234;28;20313;-80
2022/09/11 11:51:51;;;;;;;;;;;19.10;77.70;;;;;;4994470;28;19917;-82
2022/09/11 11:54:30;;;;;;;;;;;19.20;77.80;;;;;;5017971;28;19920;-83
2022/09/11 11:56:58;;;;;;;;;;;19.10;77.80;;;;;;5013842;28;20302;-83
2022/09/11 11:59:34;;;;;;;;;;;19.00;77.50;;;;;;5023676;28;19941;-81
2022/09/11 12:02:09;;;;;;;;;;;19.10;77.50;;;;;;5030979;28;19913;-82
2022/09/11 12:04:40;;;;;;;;;;;19.30;76.80;;;;;;5018899;28;20506;-80
2022/09/11 12:07:12;;;;;;;;;;;19.20;76.40;;;;;;5030597;28;19944;-81
2022/09/11 12:09:38;;;;;;;;;;;19.10;78.40;;;;;;5008297;28;19921;-80
2022/09/11 12:12:05;;;;;;;;;;;19.30;78.20;;;;;;5005123;28;19913;-80
2022/09/11 12:14:33;;;;;;;;;;;19.50;76.30;;;;;;5021621;28;19993;-80
2022/09/11 12:17:17;;;;;;;;;;;19.50;76.20;;;;;;5017109;28;19913;-79
2022/09/11 12:20:01;;;;;;;;;;;19.60;76.30;;;;;;5036216;28;19913;-80
2022/09/11 12:22:37;;;;;;;;;;;19.50;75.90;;;;;;5029424;28;19913;-81
2022/09/11 12:25:02;;;;;;;;;;;19.40;76.70;;;;;;5031308;28;20298;-80
2022/09/11 12:27:49;;;;;;;;;;;19.40;76.10;;;;;;5032418;28;20198;-80
2022/09/11 12:30:14;;;;;;;;;;;19.50;75.50;;;;;;5007319;28;19914;-80
2022/09/11 12:32:44;;;;;;;;;;;19.60;75.10;;;;;;5015695;28;19913;-80
2022/09/11 12:35:18;;;;;;;;;;;19.60;76.50;;;;;;5033874;28;19949;-80
2022/09/11 12:37:44;;;;;;;;;;;19.70;75.50;;;;;;5028628;28;19913;-79
2022/09/11 12:40:17;;;;;;;;;;;19.70;74.30;;;;;;5038470;28;19913;-76
2022/09/11 12:42:54;;;;;;;;;;;19.70;73.70;;;;;;5026963;28;20003;-77
2022/09/11 12:45:30;;;;;;;;;;;19.80;75.00;;;;;;5024174;28;19917;-77
2022/09/11 12:48:07;;;;;;;;;;;19.80;74.30;;;;;;5026551;28;20020;-77
2022/09/11 12:50:33;;;;;;;;;;;19.70;76.40;;;;;;5006276;28;19917;-77
2022/09/11 12:53:02;;;;;;;;;;;19.70;73.60;;;;;;5022442;28;20409;-77
2022/09/11 12:55:32;;;;;;;;;;;19.70;73.80;;;;;;5005644;28;19917;-76
2022/09/11 12:58:01;;;;;;;;;;;19.50;74.50;;;;;;5023012;28;19974;-77
2022/09/11 13:00:37;;;;;;;;;;;19.30;75.20;;;;;;5013525;28;19921;-77
2022/09/11 13:03:03;;;;;;;;;;;19.00;75.80;;;;;;5007267;28;19913;-77
2022/09/11 13:05:33;;;;;;;;;;;19.00;75.90;;;;;;5024283;28;19925;-77
2022/09/11 13:08:02;;;;;;;;;;;19.00;75.70;;;;;;5017780;28;19917;-78
2022/09/11 13:10:32;;;;;;;;;;;19.00;75.80;;;;;;5041737;28;20362;-77
2022/09/11 13:12:58;;;;;;;;;;;18.80;77.00;;;;;;5029835;28;20009;-78
2022/09/11 13:15:30;;;;;;;;;;;18.90;75.40;;;;;;5014687;28;19964;-77
2022/09/11 13:17:55;;;;;;;;;;;18.80;77.70;;;;;;5036495;28;19909;-77
2022/09/11 13:20:22;;;;;;;;;;;18.50;77.30;;;;;;5027068;28;20051;-76
2022/09/11 13:22:48;;;;;;;;;;;18.70;77.00;;;;;;5016622;28;19913;-78
2022/09/11 13:25:16;;;;;;;;;;;18.60;77.90;;;;;;5029945;28;19913;-81
2022/09/11 13:27:44;;;;;;;;;;;18.60;77.30;;;;;;5016386;28;20000;-77
2022/09/11 13:30:14;;;;;;;;;;;18.70;77.10;;;;;;5026027;28;19914;-78
2022/09/11 13:32:40;;;;;;;;;;;18.60;77.20;;;;;;5014294;28;19964;-78
2022/09/11 13:35:15;;;;;;;;;;;18.50;77.90;;;;;;5041221;28;19909;-78
2022/09/11 13:37:40;;;;;;;;;;;18.50;78.70;;;;;;5041742;28;19955;-78
2022/09/11 13:40:14;;;;;;;;;;;18.30;79.10;;;;;;5039645;28;19976;-77
2022/09/11 13:42:39;;;;;;;;;;;18.40;79.40;;;;;;5017548;28;19917;-77
2022/09/11 13:45:05;;;;;;;;;;;18.60;77.30;;;;;;5024661;28;19984;-78
2022/09/11 13:47:31;;;;;;;;;;;18.70;77.80;;;;;;5015248;28;19921;-78
2022/09/11 13:50:05;;;;;;;;;;;18.70;78.00;;;;;;5036376;28;19931;-78
2022/09/11 13:52:31;;;;;;;;;;;18.60;77.70;;;;;;5037347;28;19928;-78
2022/09/11 13:54:59;;;;;;;;;;;18.60;79.30;;;;;;5036863;28;19956;-79
2022/09/11 13:57:26;;;;;;;;;;;18.60;79.40;;;;;;5010785;28;20297;-79
2022/09/11 13:59:55;;;;;;;;;;;18.70;79.20;;;;;;5020727;28;19929;-79
2022/09/11 14:02:21;;;;;;;;;;;18.80;79.20;;;;;;5039343;28;19913;-80
2022/09/11 14:04:48;;;;;;;;;;;18.80;79.00;;;;;;5019221;28;19993;-79
2022/09/11 14:07:15;;;;;;;;;;;18.70;78.10;;;;;;5040188;28;20356;-80
2022/09/11 14:09:44;;;;;;;;;;;18.70;78.50;;;;;;5026236;28;19940;-79
2022/09/11 14:12:10;;;;;;;;;;;18.80;77.90;;;;;;5028168;28;19913;-79
2022/09/11 14:14:35;;;;;;;;;;;19.10;75.80;;;;;;5038453;28;20004;-80
2022/09/11 14:17:01;;;;;;;;;;;19.10;76.60;;;;;;5044485;28;19913;-80
2022/09/11 14:19:27;;;;;;;;;;;19.10;76.20;;;;;;5042610;28;19971;-80
2022/09/11 14:21:53;;;;;;;;;;;19.30;75.90;;;;;;5031882;28;19976;-79
2022/09/11 14:24:26;;;;;;;;;;;19.30;75.60;;;;;;5041143;28;19917;-80
2022/09/11 14:26:52;;;;;;;;;;;19.30;77.50;;;;;;5035858;28;19917;-81